sensor_id;sensor_type;location;lat;lon;timestamp;pressure;altitude;pressure_sealevel;temperature
20736;BMP180;10528;52.124;5.196;2024-02-15T00:02:25;101517.00;;;18.20
20736;BMP180;10528;52.124;5.196;2024-02-15T00:04:52;101506.00;;;18.20
20736;BMP180;10528;52.124;5.196;2024-02-15T00:07:19;101504.00;;;18.20
20736;BMP180;10528;52.124;5.196;2024-02-15T00:09:49;101494.00;;;18.20
20736;BMP180;10528;52.124;5.196;2024-02-15T00:12:16;101511.00;;;18.20
20736;BMP180;10528;52.124;5.196;2024-02-15T00:14:43;101501.00;;;18.20
20736;BMP180;10528;52.124;5.196;2024-02-15T00:17:10;101502.00;;;18.20
20736;BMP180;10528;52.124;5.196;2024-02-15T00:19:38;101499.00;;;18.20
20736;BMP180;10528;52.124;5.196;2024-02-15T00:22:09;101500.00;;;18.20
20736;BMP180;10528;52.124;5.196;2024-02-15T00:24:37;101510.00;;;18.20
20736;BMP180;10528;52.124;5.196;2024-02-15T00:27:08;101514.00;;;18.20
20736;BMP180;10528;52.124;5.196;2024-02-15T00:29:37;101503.00;;;18.20
20736;BMP180;10528;52.124;5.196;2024-02-15T00:32:05;101491.00;;;18.20
20736;BMP180;10528;52.124;5.196;2024-02-15T00:34:33;101504.00;;;18.20
20736;BMP180;10528;52.124;5.196;2024-02-15T00:37:00;101500.00;;;18.20
20736;BMP180;10528;52.124;5.196;2024-02-15T00:39:27;101486.00;;;18.20
20736;BMP180;10528;52.124;5.196;2024-02-15T00:41:54;101496.00;;;18.20
20736;BMP180;10528;52.124;5.196;2024-02-15T00:44:22;101494.00;;;18.20
20736;BMP180;10528;52.124;5.196;2024-02-15T00:46:49;101492.00;;;18.20
20736;BMP180;10528;52.124;5.196;2024-02-15T00:49:16;101487.00;;;18.20
20736;BMP180;10528;52.124;5.196;2024-02-15T00:51:43;101490.00;;;18.20
20736;BMP180;10528;52.124;5.196;2024-02-15T00:54:10;101471.00;;;18.20
20736;BMP180;10528;52.124;5.196;2024-02-15T00:56:37;101480.00;;;18.20
20736;BMP180;10528;52.124;5.196;2024-02-15T00:59:05;101478.00;;;18.20
20736;BMP180;10528;52.124;5.196;2024-02-15T01:01:32;101481.00;;;18.20
20736;BMP180;10528;52.124;5.196;2024-02-15T01:03:59;101481.00;;;18.20
20736;BMP180;10528;52.124;5.196;2024-02-15T01:06:26;101483.00;;;18.20
20736;BMP180;10528;52.124;5.196;2024-02-15T01:08:53;101487.00;;;18.20
20736;BMP180;10528;52.124;5.196;2024-02-15T01:11:20;101482.00;;;18.20
20736;BMP180;10528;52.124;5.196;2024-02-15T01:13:47;101484.00;;;18.20
20736;BMP180;10528;52.124;5.196;2024-02-15T01:16:14;101480.00;;;18.20
20736;BMP180;10528;52.124;5.196;2024-02-15T01:18:42;101480.00;;;18.20
20736;BMP180;10528;52.124;5.196;2024-02-15T01:21:09;101476.00;;;18.20
20736;BMP180;10528;52.124;5.196;2024-02-15T01:23:38;101477.00;;;18.20
20736;BMP180;10528;52.124;5.196;2024-02-15T01:26:05;101462.00;;;18.20
20736;BMP180;10528;52.124;5.196;2024-02-15T01:28:32;101476.00;;;18.20
20736;BMP180;10528;52.124;5.196;2024-02-15T01:30:59;101469.00;;;18.20
20736;BMP180;10528;52.124;5.196;2024-02-15T01:33:26;101472.00;;;18.20
20736;BMP180;10528;52.124;5.196;2024-02-15T01:35:54;101455.00;;;18.20
20736;BMP180;10528;52.124;5.196;2024-02-15T01:38:21;101469.00;;;18.10
20736;BMP180;10528;52.124;5.196;2024-02-15T01:40:48;101471.00;;;18.10
20736;BMP180;10528;52.124;5.196;2024-02-15T01:43:15;101477.00;;;18.10
20736;BMP180;10528;52.124;5.196;2024-02-15T01:45:42;101474.00;;;18.10
20736;BMP180;10528;52.124;5.196;2024-02-15T01:48:10;101461.00;;;18.10
20736;BMP180;10528;52.124;5.196;2024-02-15T01:50:38;101462.00;;;18.10
20736;BMP180;10528;52.124;5.196;2024-02-15T01:53:07;101458.00;;;18.20
20736;BMP180;10528;52.124;5.196;2024-02-15T01:55:35;101461.00;;;18.10
20736;BMP180;10528;52.124;5.196;2024-02-15T01:58:03;101454.00;;;18.20
20736;BMP180;10528;52.124;5.196;2024-02-15T02:00:30;101455.00;;;18.10
20736;BMP180;10528;52.124;5.196;2024-02-15T02:02:59;101451.00;;;18.10
20736;BMP180;10528;52.124;5.196;2024-02-15T02:05:31;101454.00;;;18.10
20736;BMP180;10528;52.124;5.196;2024-02-15T02:07:58;101451.00;;;18.20
20736;BMP180;10528;52.124;5.196;2024-02-15T02:10:28;101445.00;;;18.20
20736;BMP180;10528;52.124;5.196;2024-02-15T02:13:02;101448.00;;;18.20
20736;BMP180;10528;52.124;5.196;2024-02-15T02:15:32;101449.00;;;18.20
20736;BMP180;10528;52.124;5.196;2024-02-15T02:18:01;101451.00;;;18.20
20736;BMP180;10528;52.124;5.196;2024-02-15T02:20:28;101439.00;;;18.20
20736;BMP180;10528;52.124;5.196;2024-02-15T02:23:06;101451.00;;;18.10
20736;BMP180;10528;52.124;5.196;2024-02-15T02:25:34;101440.00;;;18.10
20736;BMP180;10528;52.124;5.196;2024-02-15T02:28:02;101431.00;;;18.10
20736;BMP180;10528;52.124;5.196;2024-02-15T02:30:29;101429.00;;;18.10
20736;BMP180;10528;52.124;5.196;2024-02-15T02:32:56;101421.00;;;18.10
20736;BMP180;10528;52.124;5.196;2024-02-15T02:35:25;101422.00;;;18.00
20736;BMP180;10528;52.124;5.196;2024-02-15T02:37:53;101430.00;;;18.10
20736;BMP180;10528;52.124;5.196;2024-02-15T02:40:20;101437.00;;;18.00
20736;BMP180;10528;52.124;5.196;2024-02-15T02:42:55;101428.00;;;18.00
20736;BMP180;10528;52.124;5.196;2024-02-15T02:45:23;101426.00;;;18.00
20736;BMP180;10528;52.124;5.196;2024-02-15T02:47:51;101431.00;;;18.00
20736;BMP180;10528;52.124;5.196;2024-02-15T02:50:21;101428.00;;;18.00
20736;BMP180;10528;52.124;5.196;2024-02-15T02:52:50;101435.00;;;18.00
20736;BMP180;10528;52.124;5.196;2024-02-15T02:55:17;101430.00;;;18.00
20736;BMP180;10528;52.124;5.196;2024-02-15T02:57:44;101429.00;;;18.00
20736;BMP180;10528;52.124;5.196;2024-02-15T03:00:13;101430.00;;;18.00
20736;BMP180;10528;52.124;5.196;2024-02-15T03:02:43;101421.00;;;18.00
20736;BMP180;10528;52.124;5.196;2024-02-15T03:05:10;101429.00;;;18.00
20736;BMP180;10528;52.124;5.196;2024-02-15T03:07:41;101417.00;;;18.00
20736;BMP180;10528;52.124;5.196;2024-02-15T03:10:09;101423.00;;;18.00
20736;BMP180;10528;52.124;5.196;2024-02-15T03:12:37;101426.00;;;18.00
20736;BMP180;10528;52.124;5.196;2024-02-15T03:15:06;101419.00;;;18.00
20736;BMP180;10528;52.124;5.196;2024-02-15T03:17:39;101420.00;;;18.00
20736;BMP180;10528;52.124;5.196;2024-02-15T03:20:11;101424.00;;;18.00
20736;BMP180;10528;52.124;5.196;2024-02-15T03:22:57;101423.00;;;18.00
20736;BMP180;10528;52.124;5.196;2024-02-15T03:25:26;101414.00;;;18.00
20736;BMP180;10528;52.124;5.196;2024-02-15T03:27:59;101416.00;;;18.00
20736;BMP180;10528;52.124;5.196;2024-02-15T03:30:32;101420.00;;;18.00
20736;BMP180;10528;52.124;5.196;2024-02-15T03:33:01;101413.00;;;18.00
20736;BMP180;10528;52.124;5.196;2024-02-15T03:35:32;101412.00;;;18.00
20736;BMP180;10528;52.124;5.196;2024-02-15T03:38:00;101414.00;;;18.00
20736;BMP180;10528;52.124;5.196;2024-02-15T03:40:28;101413.00;;;18.00
20736;BMP180;10528;52.124;5.196;2024-02-15T03:42:56;101409.00;;;17.90
20736;BMP180;10528;52.124;5.196;2024-02-15T03:45:23;101414.00;;;18.00
20736;BMP180;10528;52.124;5.196;2024-02-15T03:47:54;101409.00;;;17.90
20736;BMP180;10528;52.124;5.196;2024-02-15T03:50:21;101406.00;;;17.90
20736;BMP180;10528;52.124;5.196;2024-02-15T03:52:49;101412.00;;;17.90
20736;BMP180;10528;52.124;5.196;2024-02-15T03:55:18;101405.00;;;17.90
20736;BMP180;10528;52.124;5.196;2024-02-15T03:57:45;101405.00;;;17.90
20736;BMP180;10528;52.124;5.196;2024-02-15T04:00:13;101412.00;;;17.90
20736;BMP180;10528;52.124;5.196;2024-02-15T04:02:49;101405.00;;;18.00
20736;BMP180;10528;52.124;5.196;2024-02-15T04:05:17;101398.00;;;18.00
20736;BMP180;10528;52.124;5.196;2024-02-15T04:07:46;101403.00;;;18.00
20736;BMP180;10528;52.124;5.196;2024-02-15T04:10:13;101396.00;;;18.00
20736;BMP180;10528;52.124;5.196;2024-02-15T04:12:40;101403.00;;;18.00
20736;BMP180;10528;52.124;5.196;2024-02-15T04:15:10;101410.00;;;18.00
20736;BMP180;10528;52.124;5.196;2024-02-15T04:17:43;101395.00;;;18.00
20736;BMP180;10528;52.124;5.196;2024-02-15T04:20:12;101392.00;;;18.00
20736;BMP180;10528;52.124;5.196;2024-02-15T04:22:40;101396.00;;;18.00
20736;BMP180;10528;52.124;5.196;2024-02-15T04:25:10;101398.00;;;18.00
20736;BMP180;10528;52.124;5.196;2024-02-15T04:27:38;101395.00;;;18.00
20736;BMP180;10528;52.124;5.196;2024-02-15T04:30:06;101391.00;;;18.00
20736;BMP180;10528;52.124;5.196;2024-02-15T04:32:35;101395.00;;;18.00
20736;BMP180;10528;52.124;5.196;2024-02-15T04:35:03;101380.00;;;18.00
20736;BMP180;10528;52.124;5.196;2024-02-15T04:37:33;101389.00;;;18.00
20736;BMP180;10528;52.124;5.196;2024-02-15T04:40:01;101395.00;;;18.00
20736;BMP180;10528;52.124;5.196;2024-02-15T04:42:34;101387.00;;;18.00
20736;BMP180;10528;52.124;5.196;2024-02-15T04:45:04;101394.00;;;18.10
20736;BMP180;10528;52.124;5.196;2024-02-15T04:47:35;101386.00;;;18.00
20736;BMP180;10528;52.124;5.196;2024-02-15T04:50:03;101387.00;;;18.00
20736;BMP180;10528;52.124;5.196;2024-02-15T04:52:33;101376.00;;;18.10
20736;BMP180;10528;52.124;5.196;2024-02-15T04:55:02;101370.00;;;18.00
20736;BMP180;10528;52.124;5.196;2024-02-15T04:57:31;101376.00;;;18.10
20736;BMP180;10528;52.124;5.196;2024-02-15T05:00:01;101377.00;;;18.00
20736;BMP180;10528;52.124;5.196;2024-02-15T05:02:28;101375.00;;;18.00
20736;BMP180;10528;52.124;5.196;2024-02-15T05:04:55;101383.00;;;18.10
20736;BMP180;10528;52.124;5.196;2024-02-15T05:07:24;101386.00;;;18.10
20736;BMP180;10528;52.124;5.196;2024-02-15T05:09:51;101388.00;;;18.10
20736;BMP180;10528;52.124;5.196;2024-02-15T05:12:23;101390.00;;;18.10
20736;BMP180;10528;52.124;5.196;2024-02-15T05:14:51;101394.00;;;18.10
20736;BMP180;10528;52.124;5.196;2024-02-15T05:17:19;101386.00;;;18.10
20736;BMP180;10528;52.124;5.196;2024-02-15T05:19:49;101391.00;;;18.10
20736;BMP180;10528;52.124;5.196;2024-02-15T05:22:17;101387.00;;;18.10
20736;BMP180;10528;52.124;5.196;2024-02-15T05:24:45;101389.00;;;18.10
20736;BMP180;10528;52.124;5.196;2024-02-15T05:27:12;101383.00;;;18.10
20736;BMP180;10528;52.124;5.196;2024-02-15T05:29:39;101371.00;;;18.10
20736;BMP180;10528;52.124;5.196;2024-02-15T05:32:10;101363.00;;;18.10
20736;BMP180;10528;52.124;5.196;2024-02-15T05:34:37;101332.00;;;18.10
20736;BMP180;10528;52.124;5.196;2024-02-15T05:37:07;101318.00;;;18.10
20736;BMP180;10528;52.124;5.196;2024-02-15T05:39:34;101292.00;;;18.00
20736;BMP180;10528;52.124;5.196;2024-02-15T05:42:01;101283.00;;;18.00
20736;BMP180;10528;52.124;5.196;2024-02-15T05:44:28;101306.00;;;18.00
20736;BMP180;10528;52.124;5.196;2024-02-15T05:46:55;101324.00;;;18.00
20736;BMP180;10528;52.124;5.196;2024-02-15T05:49:23;101338.00;;;18.00
20736;BMP180;10528;52.124;5.196;2024-02-15T05:51:52;101328.00;;;18.00
20736;BMP180;10528;52.124;5.196;2024-02-15T05:54:21;101325.00;;;18.00
20736;BMP180;10528;52.124;5.196;2024-02-15T05:56:50;101321.00;;;18.00
20736;BMP180;10528;52.124;5.196;2024-02-15T05:59:18;101317.00;;;18.00
20736;BMP180;10528;52.124;5.196;2024-02-15T06:01:47;101313.00;;;18.10
20736;BMP180;10528;52.124;5.196;2024-02-15T06:04:18;101327.00;;;18.00
20736;BMP180;10528;52.124;5.196;2024-02-15T06:06:46;101315.00;;;18.10
20736;BMP180;10528;52.124;5.196;2024-02-15T06:09:17;101327.00;;;18.10
20736;BMP180;10528;52.124;5.196;2024-02-15T06:11:44;101322.00;;;18.10
20736;BMP180;10528;52.124;5.196;2024-02-15T06:14:12;101322.00;;;18.10
20736;BMP180;10528;52.124;5.196;2024-02-15T06:16:44;101321.00;;;18.10
20736;BMP180;10528;52.124;5.196;2024-02-15T06:19:11;101327.00;;;18.10
20736;BMP180;10528;52.124;5.196;2024-02-15T06:21:38;101332.00;;;18.10
20736;BMP180;10528;52.124;5.196;2024-02-15T06:24:05;101334.00;;;18.10
20736;BMP180;10528;52.124;5.196;2024-02-15T06:26:32;101338.00;;;18.10
20736;BMP180;10528;52.124;5.196;2024-02-15T06:29:00;101329.00;;;18.10
20736;BMP180;10528;52.124;5.196;2024-02-15T06:31:46;101329.00;;;18.10
20736;BMP180;10528;52.124;5.196;2024-02-15T06:34:31;101320.00;;;18.10
20736;BMP180;10528;52.124;5.196;2024-02-15T06:37:36;101312.00;;;18.00
20736;BMP180;10528;52.124;5.196;2024-02-15T06:40:22;101309.00;;;18.00
20736;BMP180;10528;52.124;5.196;2024-02-15T06:42:49;101306.00;;;18.10
20736;BMP180;10528;52.124;5.196;2024-02-15T06:45:17;101310.00;;;18.10
20736;BMP180;10528;52.124;5.196;2024-02-15T06:47:45;101306.00;;;18.10
20736;BMP180;10528;52.124;5.196;2024-02-15T06:50:13;101300.00;;;18.10
20736;BMP180;10528;52.124;5.196;2024-02-15T06:52:41;101308.00;;;18.10
20736;BMP180;10528;52.124;5.196;2024-02-15T06:55:09;101306.00;;;18.10
20736;BMP180;10528;52.124;5.196;2024-02-15T06:57:39;101302.00;;;18.10
20736;BMP180;10528;52.124;5.196;2024-02-15T07:00:10;101311.00;;;18.10
20736;BMP180;10528;52.124;5.196;2024-02-15T07:02:42;101309.00;;;18.10
20736;BMP180;10528;52.124;5.196;2024-02-15T07:05:11;101325.00;;;18.10
20736;BMP180;10528;52.124;5.196;2024-02-15T07:07:38;101329.00;;;18.10
20736;BMP180;10528;52.124;5.196;2024-02-15T07:10:10;101329.00;;;18.10
20736;BMP180;10528;52.124;5.196;2024-02-15T07:12:37;101315.00;;;18.10
20736;BMP180;10528;52.124;5.196;2024-02-15T07:15:05;101319.00;;;18.10
20736;BMP180;10528;52.124;5.196;2024-02-15T07:17:36;101319.00;;;18.10
20736;BMP180;10528;52.124;5.196;2024-02-15T07:20:04;101326.00;;;18.10
20736;BMP180;10528;52.124;5.196;2024-02-15T07:22:31;101345.00;;;18.10
20736;BMP180;10528;52.124;5.196;2024-02-15T07:24:58;101367.00;;;18.10
20736;BMP180;10528;52.124;5.196;2024-02-15T07:27:25;101348.00;;;18.10
20736;BMP180;10528;52.124;5.196;2024-02-15T07:29:53;101346.00;;;18.10
20736;BMP180;10528;52.124;5.196;2024-02-15T07:32:21;101334.00;;;18.10
20736;BMP180;10528;52.124;5.196;2024-02-15T07:34:47;101338.00;;;18.10
20736;BMP180;10528;52.124;5.196;2024-02-15T07:37:15;101344.00;;;18.10
20736;BMP180;10528;52.124;5.196;2024-02-15T07:39:42;101357.00;;;18.10
20736;BMP180;10528;52.124;5.196;2024-02-15T07:42:09;101342.00;;;18.10
20736;BMP180;10528;52.124;5.196;2024-02-15T07:44:36;101348.00;;;18.10
20736;BMP180;10528;52.124;5.196;2024-02-15T07:47:03;101345.00;;;18.10
20736;BMP180;10528;52.124;5.196;2024-02-15T07:49:31;101352.00;;;18.20
20736;BMP180;10528;52.124;5.196;2024-02-15T07:52:00;101351.00;;;18.20
20736;BMP180;10528;52.124;5.196;2024-02-15T07:54:27;101350.00;;;18.20
20736;BMP180;10528;52.124;5.196;2024-02-15T07:56:56;101338.00;;;18.20
20736;BMP180;10528;52.124;5.196;2024-02-15T07:59:25;101319.00;;;18.20
20736;BMP180;10528;52.124;5.196;2024-02-15T08:01:52;101315.00;;;18.20
20736;BMP180;10528;52.124;5.196;2024-02-15T08:04:19;101327.00;;;18.20
20736;BMP180;10528;52.124;5.196;2024-02-15T08:06:47;101322.00;;;18.20
20736;BMP180;10528;52.124;5.196;2024-02-15T08:09:21;101323.00;;;18.20
20736;BMP180;10528;52.124;5.196;2024-02-15T08:11:51;101328.00;;;18.20
20736;BMP180;10528;52.124;5.196;2024-02-15T08:14:18;101332.00;;;18.20
20736;BMP180;10528;52.124;5.196;2024-02-15T08:16:47;101323.00;;;18.20
20736;BMP180;10528;52.124;5.196;2024-02-15T08:19:14;101332.00;;;18.20
20736;BMP180;10528;52.124;5.196;2024-02-15T08:21:41;101333.00;;;18.20
20736;BMP180;10528;52.124;5.196;2024-02-15T08:24:13;101339.00;;;18.20
20736;BMP180;10528;52.124;5.196;2024-02-15T08:26:40;101340.00;;;18.20
20736;BMP180;10528;52.124;5.196;2024-02-15T08:29:08;101335.00;;;18.20
20736;BMP180;10528;52.124;5.196;2024-02-15T08:31:36;101319.00;;;18.20
20736;BMP180;10528;52.124;5.196;2024-02-15T08:34:03;101307.00;;;18.20
20736;BMP180;10528;52.124;5.196;2024-02-15T08:36:37;101313.00;;;18.20
20736;BMP180;10528;52.124;5.196;2024-02-15T08:39:06;101317.00;;;18.20
20736;BMP180;10528;52.124;5.196;2024-02-15T08:41:35;101311.00;;;18.20
20736;BMP180;10528;52.124;5.196;2024-02-15T08:44:02;101300.00;;;18.20
20736;BMP180;10528;52.124;5.196;2024-02-15T08:46:32;101296.00;;;18.30
20736;BMP180;10528;52.124;5.196;2024-02-15T08:48:59;101288.00;;;18.30
20736;BMP180;10528;52.124;5.196;2024-02-15T08:51:27;101286.00;;;18.30
20736;BMP180;10528;52.124;5.196;2024-02-15T08:53:54;101301.00;;;18.20
20736;BMP180;10528;52.124;5.196;2024-02-15T08:56:24;101304.00;;;18.20
20736;BMP180;10528;52.124;5.196;2024-02-15T08:58:51;101307.00;;;18.30
20736;BMP180;10528;52.124;5.196;2024-02-15T09:01:18;101300.00;;;18.30
20736;BMP180;10528;52.124;5.196;2024-02-15T09:03:45;101288.00;;;18.20
20736;BMP180;10528;52.124;5.196;2024-02-15T09:06:12;101307.00;;;18.30
20736;BMP180;10528;52.124;5.196;2024-02-15T09:08:40;101300.00;;;18.30
20736;BMP180;10528;52.124;5.196;2024-02-15T09:11:07;101309.00;;;18.30
20736;BMP180;10528;52.124;5.196;2024-02-15T09:13:38;101302.00;;;18.30
20736;BMP180;10528;52.124;5.196;2024-02-15T09:16:06;101296.00;;;18.30
20736;BMP180;10528;52.124;5.196;2024-02-15T09:18:33;101297.00;;;18.30
20736;BMP180;10528;52.124;5.196;2024-02-15T09:21:00;101300.00;;;18.30
20736;BMP180;10528;52.124;5.196;2024-02-15T09:23:27;101288.00;;;18.30
20736;BMP180;10528;52.124;5.196;2024-02-15T09:25:54;101291.00;;;18.30
20736;BMP180;10528;52.124;5.196;2024-02-15T09:28:21;101287.00;;;18.30
20736;BMP180;10528;52.124;5.196;2024-02-15T09:30:49;101300.00;;;18.30
20736;BMP180;10528;52.124;5.196;2024-02-15T09:33:21;101308.00;;;18.30
20736;BMP180;10528;52.124;5.196;2024-02-15T09:35:48;101304.00;;;18.40
20736;BMP180;10528;52.124;5.196;2024-02-15T09:38:15;101306.00;;;18.30
20736;BMP180;10528;52.124;5.196;2024-02-15T09:40:44;101307.00;;;18.40
20736;BMP180;10528;52.124;5.196;2024-02-15T09:43:11;101297.00;;;18.40
20736;BMP180;10528;52.124;5.196;2024-02-15T09:45:42;101302.00;;;18.40
20736;BMP180;10528;52.124;5.196;2024-02-15T09:48:10;101304.00;;;18.40
20736;BMP180;10528;52.124;5.196;2024-02-15T09:50:43;101301.00;;;18.40
20736;BMP180;10528;52.124;5.196;2024-02-15T09:53:13;101306.00;;;18.50
20736;BMP180;10528;52.124;5.196;2024-02-15T09:55:42;101313.00;;;18.50
20736;BMP180;10528;52.124;5.196;2024-02-15T09:58:11;101306.00;;;18.50
20736;BMP180;10528;52.124;5.196;2024-02-15T10:00:39;101306.00;;;18.50
20736;BMP180;10528;52.124;5.196;2024-02-15T10:03:06;101314.00;;;18.50
20736;BMP180;10528;52.124;5.196;2024-02-15T10:05:35;101302.00;;;18.60
20736;BMP180;10528;52.124;5.196;2024-02-15T10:08:03;101310.00;;;18.60
20736;BMP180;10528;52.124;5.196;2024-02-15T10:10:30;101310.00;;;18.60
20736;BMP180;10528;52.124;5.196;2024-02-15T10:13:00;101297.00;;;18.60
20736;BMP180;10528;52.124;5.196;2024-02-15T10:15:35;101296.00;;;18.60
20736;BMP180;10528;52.124;5.196;2024-02-15T10:18:06;101311.00;;;18.60
20736;BMP180;10528;52.124;5.196;2024-02-15T10:20:36;101319.00;;;18.70
20736;BMP180;10528;52.124;5.196;2024-02-15T10:25:37;101315.00;;;18.70
20736;BMP180;10528;52.124;5.196;2024-02-15T10:28:06;101314.00;;;18.70
20736;BMP180;10528;52.124;5.196;2024-02-15T10:30:39;101301.00;;;18.70
20736;BMP180;10528;52.124;5.196;2024-02-15T10:33:07;101306.00;;;18.70
20736;BMP180;10528;52.124;5.196;2024-02-15T10:35:37;101304.00;;;18.80
20736;BMP180;10528;52.124;5.196;2024-02-15T10:38:07;101304.00;;;18.80
20736;BMP180;10528;52.124;5.196;2024-02-15T10:40:36;101294.00;;;18.90
20736;BMP180;10528;52.124;5.196;2024-02-15T10:43:04;101290.00;;;18.90
20736;BMP180;10528;52.124;5.196;2024-02-15T10:45:34;101307.00;;;18.90
20736;BMP180;10528;52.124;5.196;2024-02-15T10:48:01;101295.00;;;19.00
20736;BMP180;10528;52.124;5.196;2024-02-15T10:50:28;101303.00;;;19.00
20736;BMP180;10528;52.124;5.196;2024-02-15T10:52:57;101290.00;;;19.00
20736;BMP180;10528;52.124;5.196;2024-02-15T10:56:33;101291.00;;;19.00
20736;BMP180;10528;52.124;5.196;2024-02-15T10:59:16;101295.00;;;19.10
20736;BMP180;10528;52.124;5.196;2024-02-15T11:01:46;101303.00;;;19.10
20736;BMP180;10528;52.124;5.196;2024-02-15T11:04:20;101296.00;;;19.20
20736;BMP180;10528;52.124;5.196;2024-02-15T11:06:55;101295.00;;;19.20
20736;BMP180;10528;52.124;5.196;2024-02-15T11:09:23;101299.00;;;19.20
20736;BMP180;10528;52.124;5.196;2024-02-15T11:11:50;101294.00;;;19.20
20736;BMP180;10528;52.124;5.196;2024-02-15T11:14:30;101298.00;;;19.20
20736;BMP180;10528;52.124;5.196;2024-02-15T11:16:59;101295.00;;;19.20
20736;BMP180;10528;52.124;5.196;2024-02-15T11:22:09;101293.00;;;19.20
20736;BMP180;10528;52.124;5.196;2024-02-15T11:24:50;101297.00;;;19.30
20736;BMP180;10528;52.124;5.196;2024-02-15T11:27:26;101290.00;;;19.30
20736;BMP180;10528;52.124;5.196;2024-02-15T11:29:57;101293.00;;;19.30
20736;BMP180;10528;52.124;5.196;2024-02-15T11:35:25;101280.00;;;19.30
20736;BMP180;10528;52.124;5.196;2024-02-15T11:37:57;101271.00;;;19.40
20736;BMP180;10528;52.124;5.196;2024-02-15T11:46:12;101254.00;;;19.50
20736;BMP180;10528;52.124;5.196;2024-02-15T11:48:40;101255.00;;;19.50
20736;BMP180;10528;52.124;5.196;2024-02-15T11:51:07;101252.00;;;19.60
20736;BMP180;10528;52.124;5.196;2024-02-15T11:53:38;101250.00;;;19.60
20736;BMP180;10528;52.124;5.196;2024-02-15T11:56:06;101255.00;;;19.70
20736;BMP180;10528;52.124;5.196;2024-02-15T11:58:37;101234.00;;;19.70
20736;BMP180;10528;52.124;5.196;2024-02-15T12:01:19;101238.00;;;19.80
20736;BMP180;10528;52.124;5.196;2024-02-15T12:04:05;101238.00;;;19.80
20736;BMP180;10528;52.124;5.196;2024-02-15T12:06:58;101239.00;;;19.80
20736;BMP180;10528;52.124;5.196;2024-02-15T12:09:44;101225.00;;;19.90
20736;BMP180;10528;52.124;5.196;2024-02-15T12:12:32;101226.00;;;19.90
20736;BMP180;10528;52.124;5.196;2024-02-15T12:15:18;101219.00;;;20.00
20736;BMP180;10528;52.124;5.196;2024-02-15T12:18:17;101219.00;;;20.00
20736;BMP180;10528;52.124;5.196;2024-02-15T12:21:05;101222.00;;;20.00
20736;BMP180;10528;52.124;5.196;2024-02-15T12:23:32;101212.00;;;20.10
20736;BMP180;10528;52.124;5.196;2024-02-15T12:26:02;101212.00;;;20.10
20736;BMP180;10528;52.124;5.196;2024-02-15T12:28:32;101209.00;;;20.10
20736;BMP180;10528;52.124;5.196;2024-02-15T12:31:01;101198.00;;;20.10
20736;BMP180;10528;52.124;5.196;2024-02-15T12:33:28;101209.00;;;20.20
20736;BMP180;10528;52.124;5.196;2024-02-15T12:36:06;101197.00;;;20.20
20736;BMP180;10528;52.124;5.196;2024-02-15T12:38:36;101196.00;;;20.20
20736;BMP180;10528;52.124;5.196;2024-02-15T12:41:20;101199.00;;;20.20
20736;BMP180;10528;52.124;5.196;2024-02-15T12:43:53;101197.00;;;20.30
20736;BMP180;10528;52.124;5.196;2024-02-15T12:46:20;101195.00;;;20.30
20736;BMP180;10528;52.124;5.196;2024-02-15T12:48:47;101190.00;;;20.30
20736;BMP180;10528;52.124;5.196;2024-02-15T12:51:14;101186.00;;;20.30
20736;BMP180;10528;52.124;5.196;2024-02-15T12:53:42;101189.00;;;20.40
20736;BMP180;10528;52.124;5.196;2024-02-15T12:56:09;101179.00;;;20.40
20736;BMP180;10528;52.124;5.196;2024-02-15T12:58:36;101187.00;;;20.40
20736;BMP180;10528;52.124;5.196;2024-02-15T13:01:05;101179.00;;;20.50
20736;BMP180;10528;52.124;5.196;2024-02-15T13:03:32;101180.00;;;20.50
20736;BMP180;10528;52.124;5.196;2024-02-15T13:05:59;101170.00;;;20.50
20736;BMP180;10528;52.124;5.196;2024-02-15T13:08:27;101177.00;;;20.60
20736;BMP180;10528;52.124;5.196;2024-02-15T13:10:53;101179.00;;;20.60
20736;BMP180;10528;52.124;5.196;2024-02-15T13:13:21;101171.00;;;20.60
20736;BMP180;10528;52.124;5.196;2024-02-15T13:15:49;101164.00;;;20.70
20736;BMP180;10528;52.124;5.196;2024-02-15T13:18:19;101169.00;;;20.70
20736;BMP180;10528;52.124;5.196;2024-02-15T13:20:46;101164.00;;;20.80
20736;BMP180;10528;52.124;5.196;2024-02-15T13:23:16;101164.00;;;20.80
20736;BMP180;10528;52.124;5.196;2024-02-15T13:25:51;101152.00;;;20.80
20736;BMP180;10528;52.124;5.196;2024-02-15T13:28:19;101153.00;;;20.90
20736;BMP180;10528;52.124;5.196;2024-02-15T13:30:46;101149.00;;;20.90
20736;BMP180;10528;52.124;5.196;2024-02-15T13:33:16;101140.00;;;20.90
20736;BMP180;10528;52.124;5.196;2024-02-15T13:35:43;101140.00;;;20.90
20736;BMP180;10528;52.124;5.196;2024-02-15T13:38:12;101135.00;;;21.00
20736;BMP180;10528;52.124;5.196;2024-02-15T13:40:49;101130.00;;;21.00
20736;BMP180;10528;52.124;5.196;2024-02-15T13:43:18;101124.00;;;21.00
20736;BMP180;10528;52.124;5.196;2024-02-15T13:45:45;101124.00;;;21.00
20736;BMP180;10528;52.124;5.196;2024-02-15T13:48:12;101124.00;;;21.00
20736;BMP180;10528;52.124;5.196;2024-02-15T13:50:43;101116.00;;;21.00
20736;BMP180;10528;52.124;5.196;2024-02-15T13:53:12;101121.00;;;21.00
20736;BMP180;10528;52.124;5.196;2024-02-15T13:55:41;101117.00;;;21.00
20736;BMP180;10528;52.124;5.196;2024-02-15T13:58:08;101110.00;;;21.00
20736;BMP180;10528;52.124;5.196;2024-02-15T14:00:40;101116.00;;;21.00
20736;BMP180;10528;52.124;5.196;2024-02-15T14:03:11;101111.00;;;20.90
20736;BMP180;10528;52.124;5.196;2024-02-15T14:05:39;101106.00;;;20.90
20736;BMP180;10528;52.124;5.196;2024-02-15T14:08:08;101096.00;;;20.90
20736;BMP180;10528;52.124;5.196;2024-02-15T14:10:39;101096.00;;;20.90
20736;BMP180;10528;52.124;5.196;2024-02-15T14:13:06;101084.00;;;20.90
20736;BMP180;10528;52.124;5.196;2024-02-15T14:15:35;101096.00;;;20.90
20736;BMP180;10528;52.124;5.196;2024-02-15T14:18:11;101101.00;;;20.90
20736;BMP180;10528;52.124;5.196;2024-02-15T14:20:41;101092.00;;;20.90
20736;BMP180;10528;52.124;5.196;2024-02-15T14:23:09;101100.00;;;20.90
20736;BMP180;10528;52.124;5.196;2024-02-15T14:25:42;101102.00;;;20.90